sensor_id;sensor_type;location;lat;lon;timestamp;P1;durP1;ratioP1;P2;durP2;ratioP2
19593;SDS011;9944;48.240;16.478;2024-03-08T00:02:23;32.38;;;14.93;;
19593;SDS011;9944;48.240;16.478;2024-03-08T00:06:27;32.70;;;14.65;;
19593;SDS011;9944;48.240;16.478;2024-03-08T00:10:31;31.35;;;14.52;;
19593;SDS011;9944;48.240;16.478;2024-03-08T00:19:27;28.98;;;14.63;;
19593;SDS011;9944;48.240;16.478;2024-03-08T00:23:32;28.95;;;14.48;;
19593;SDS011;9944;48.240;16.478;2024-03-08T00:27:35;27.35;;;14.15;;
19593;SDS011;9944;48.240;16.478;2024-03-08T00:31:40;31.30;;;15.05;;
19593;SDS011;9944;48.240;16.478;2024-03-08T00:35:43;30.52;;;14.57;;
19593;SDS011;9944;48.240;16.478;2024-03-08T00:39:47;30.83;;;14.85;;
19593;SDS011;9944;48.240;16.478;2024-03-08T00:43:52;30.40;;;14.82;;
19593;SDS011;9944;48.240;16.478;2024-03-08T00:47:55;34.30;;;15.50;;
19593;SDS011;9944;48.240;16.478;2024-03-08T00:51:59;29.63;;;14.90;;
19593;SDS011;9944;48.240;16.478;2024-03-08T00:56:04;29.35;;;14.52;;
19593;SDS011;9944;48.240;16.478;2024-03-08T01:00:08;31.67;;;14.48;;
19593;SDS011;9944;48.240;16.478;2024-03-08T01:04:14;31.95;;;14.63;;
19593;SDS011;9944;48.240;16.478;2024-03-08T01:08:17;30.45;;;14.68;;
19593;SDS011;9944;48.240;16.478;2024-03-08T01:12:22;28.83;;;14.60;;
19593;SDS011;9944;48.240;16.478;2024-03-08T01:16:26;29.73;;;14.35;;
19593;SDS011;9944;48.240;16.478;2024-03-08T01:20:29;35.80;;;15.82;;
19593;SDS011;9944;48.240;16.478;2024-03-08T01:24:33;32.75;;;15.65;;
19593;SDS011;9944;48.240;16.478;2024-03-08T01:28:37;34.65;;;15.02;;
19593;SDS011;9944;48.240;16.478;2024-03-08T01:32:41;28.73;;;15.02;;
19593;SDS011;9944;48.240;16.478;2024-03-08T01:36:45;34.97;;;14.68;;
19593;SDS011;9944;48.240;16.478;2024-03-08T01:40:49;28.23;;;14.80;;
19593;SDS011;9944;48.240;16.478;2024-03-08T01:44:54;34.55;;;16.13;;
19593;SDS011;9944;48.240;16.478;2024-03-08T01:48:58;35.00;;;15.15;;
19593;SDS011;9944;48.240;16.478;2024-03-08T01:53:03;31.90;;;15.52;;
19593;SDS011;9944;48.240;16.478;2024-03-08T01:57:08;32.72;;;14.57;;
19593;SDS011;9944;48.240;16.478;2024-03-08T02:01:12;35.20;;;15.30;;
19593;SDS011;9944;48.240;16.478;2024-03-08T02:05:17;34.42;;;15.52;;
19593;SDS011;9944;48.240;16.478;2024-03-08T02:09:20;30.70;;;14.50;;
19593;SDS011;9944;48.240;16.478;2024-03-08T02:13:26;29.92;;;14.23;;
19593;SDS011;9944;48.240;16.478;2024-03-08T02:17:31;30.92;;;15.00;;
19593;SDS011;9944;48.240;16.478;2024-03-08T02:21:36;30.38;;;15.18;;
19593;SDS011;9944;48.240;16.478;2024-03-08T02:25:40;32.70;;;15.52;;
19593;SDS011;9944;48.240;16.478;2024-03-08T02:29:44;32.65;;;15.40;;
19593;SDS011;9944;48.240;16.478;2024-03-08T02:33:48;29.92;;;15.20;;
19593;SDS011;9944;48.240;16.478;2024-03-08T02:37:53;30.92;;;15.68;;
19593;SDS011;9944;48.240;16.478;2024-03-08T02:41:56;27.95;;;15.18;;
19593;SDS011;9944;48.240;16.478;2024-03-08T02:46:00;27.77;;;14.20;;
19593;SDS011;9944;48.240;16.478;2024-03-08T02:50:03;33.88;;;14.95;;
19593;SDS011;9944;48.240;16.478;2024-03-08T02:54:11;38.78;;;16.52;;
19593;SDS011;9944;48.240;16.478;2024-03-08T02:58:14;28.88;;;14.75;;
19593;SDS011;9944;48.240;16.478;2024-03-08T03:02:17;29.35;;;15.15;;
19593;SDS011;9944;48.240;16.478;2024-03-08T03:06:20;33.92;;;15.00;;
19593;SDS011;9944;48.240;16.478;2024-03-08T03:10:25;32.58;;;15.48;;
19593;SDS011;9944;48.240;16.478;2024-03-08T03:14:29;32.30;;;15.27;;
19593;SDS011;9944;48.240;16.478;2024-03-08T03:18:32;27.65;;;14.27;;
19593;SDS011;9944;48.240;16.478;2024-03-08T03:22:36;31.42;;;15.20;;
19593;SDS011;9944;48.240;16.478;2024-03-08T03:26:41;28.95;;;14.75;;
19593;SDS011;9944;48.240;16.478;2024-03-08T03:30:45;30.23;;;14.38;;
19593;SDS011;9944;48.240;16.478;2024-03-08T03:34:49;30.55;;;14.73;;
19593;SDS011;9944;48.240;16.478;2024-03-08T03:38:54;31.80;;;15.70;;
19593;SDS011;9944;48.240;16.478;2024-03-08T03:43:08;36.63;;;16.00;;
19593;SDS011;9944;48.240;16.478;2024-03-08T03:47:13;33.70;;;15.73;;
19593;SDS011;9944;48.240;16.478;2024-03-08T03:51:17;29.02;;;15.10;;
19593;SDS011;9944;48.240;16.478;2024-03-08T03:55:20;27.95;;;15.20;;
19593;SDS011;9944;48.240;16.478;2024-03-08T03:59:26;26.35;;;14.45;;
19593;SDS011;9944;48.240;16.478;2024-03-08T04:03:29;31.42;;;15.57;;
19593;SDS011;9944;48.240;16.478;2024-03-08T04:07:33;27.30;;;14.15;;
19593;SDS011;9944;48.240;16.478;2024-03-08T04:11:36;30.10;;;14.68;;
19593;SDS011;9944;48.240;16.478;2024-03-08T04:15:41;31.98;;;15.20;;
19593;SDS011;9944;48.240;16.478;2024-03-08T04:19:50;28.48;;;14.80;;
19593;SDS011;9944;48.240;16.478;2024-03-08T04:23:54;29.10;;;14.48;;
19593;SDS011;9944;48.240;16.478;2024-03-08T04:27:57;27.80;;;14.02;;
19593;SDS011;9944;48.240;16.478;2024-03-08T04:32:02;28.67;;;14.40;;
19593;SDS011;9944;48.240;16.478;2024-03-08T04:36:06;33.67;;;15.80;;
19593;SDS011;9944;48.240;16.478;2024-03-08T04:40:15;31.02;;;14.38;;
19593;SDS011;9944;48.240;16.478;2024-03-08T04:44:20;32.17;;;16.17;;
19593;SDS011;9944;48.240;16.478;2024-03-08T04:48:25;32.88;;;16.02;;
19593;SDS011;9944;48.240;16.478;2024-03-08T04:52:29;30.63;;;14.82;;
19593;SDS011;9944;48.240;16.478;2024-03-08T04:56:32;29.80;;;14.93;;
19593;SDS011;9944;48.240;16.478;2024-03-08T05:00:35;29.08;;;14.63;;
19593;SDS011;9944;48.240;16.478;2024-03-08T05:04:40;27.77;;;15.02;;
19593;SDS011;9944;48.240;16.478;2024-03-08T05:08:44;29.67;;;13.57;;
19593;SDS011;9944;48.240;16.478;2024-03-08T05:12:48;28.13;;;14.27;;
19593;SDS011;9944;48.240;16.478;2024-03-08T05:16:55;28.33;;;14.45;;
19593;SDS011;9944;48.240;16.478;2024-03-08T05:21:00;29.65;;;14.52;;
19593;SDS011;9944;48.240;16.478;2024-03-08T05:25:05;27.83;;;15.43;;
19593;SDS011;9944;48.240;16.478;2024-03-08T05:29:10;30.02;;;14.10;;
19593;SDS011;9944;48.240;16.478;2024-03-08T05:33:14;29.05;;;14.35;;
19593;SDS011;9944;48.240;16.478;2024-03-08T05:37:19;30.60;;;14.95;;
19593;SDS011;9944;48.240;16.478;2024-03-08T05:41:22;29.50;;;15.38;;
19593;SDS011;9944;48.240;16.478;2024-03-08T05:45:25;28.73;;;14.88;;
19593;SDS011;9944;48.240;16.478;2024-03-08T05:49:29;27.52;;;14.15;;
19593;SDS011;9944;48.240;16.478;2024-03-08T05:53:33;29.23;;;14.88;;
19593;SDS011;9944;48.240;16.478;2024-03-08T05:57:37;29.48;;;14.95;;
19593;SDS011;9944;48.240;16.478;2024-03-08T06:06:34;30.23;;;15.02;;
19593;SDS011;9944;48.240;16.478;2024-03-08T06:10:41;28.88;;;14.77;;
19593;SDS011;9944;48.240;16.478;2024-03-08T06:14:44;32.97;;;15.45;;
19593;SDS011;9944;48.240;16.478;2024-03-08T06:18:48;26.55;;;14.48;;
19593;SDS011;9944;48.240;16.478;2024-03-08T06:22:51;30.40;;;14.90;;
19593;SDS011;9944;48.240;16.478;2024-03-08T06:26:56;28.80;;;15.23;;
19593;SDS011;9944;48.240;16.478;2024-03-08T06:30:59;30.33;;;15.00;;
19593;SDS011;9944;48.240;16.478;2024-03-08T06:35:02;27.92;;;14.25;;
19593;SDS011;9944;48.240;16.478;2024-03-08T06:39:07;27.92;;;14.05;;
19593;SDS011;9944;48.240;16.478;2024-03-08T06:43:13;34.00;;;13.88;;
19593;SDS011;9944;48.240;16.478;2024-03-08T06:47:17;30.17;;;14.63;;
19593;SDS011;9944;48.240;16.478;2024-03-08T06:51:21;27.20;;;14.45;;
19593;SDS011;9944;48.240;16.478;2024-03-08T06:55:25;29.50;;;14.52;;
19593;SDS011;9944;48.240;16.478;2024-03-08T06:59:30;30.80;;;15.20;;
19593;SDS011;9944;48.240;16.478;2024-03-08T07:03:33;27.30;;;13.05;;
19593;SDS011;9944;48.240;16.478;2024-03-08T07:07:37;29.20;;;13.55;;
19593;SDS011;9944;48.240;16.478;2024-03-08T07:11:43;30.63;;;15.00;;
19593;SDS011;9944;48.240;16.478;2024-03-08T07:15:48;31.33;;;14.23;;
19593;SDS011;9944;48.240;16.478;2024-03-08T07:19:51;27.65;;;15.05;;
19593;SDS011;9944;48.240;16.478;2024-03-08T07:23:55;26.98;;;14.63;;
19593;SDS011;9944;48.240;16.478;2024-03-08T07:28:16;34.35;;;15.77;;
19593;SDS011;9944;48.240;16.478;2024-03-08T07:32:21;27.05;;;13.95;;
19593;SDS011;9944;48.240;16.478;2024-03-08T07:36:27;30.25;;;14.20;;
19593;SDS011;9944;48.240;16.478;2024-03-08T07:40:30;30.48;;;13.80;;
19593;SDS011;9944;48.240;16.478;2024-03-08T07:44:34;26.00;;;14.18;;
19593;SDS011;9944;48.240;16.478;2024-03-08T07:48:38;26.83;;;13.55;;
19593;SDS011;9944;48.240;16.478;2024-03-08T07:52:42;27.33;;;14.10;;
19593;SDS011;9944;48.240;16.478;2024-03-08T07:56:45;32.85;;;15.13;;
19593;SDS011;9944;48.240;16.478;2024-03-08T08:00:49;26.80;;;12.65;;
19593;SDS011;9944;48.240;16.478;2024-03-08T08:04:53;27.30;;;13.60;;
19593;SDS011;9944;48.240;16.478;2024-03-08T08:09:00;30.02;;;14.10;;
19593;SDS011;9944;48.240;16.478;2024-03-08T08:13:04;24.00;;;12.43;;
19593;SDS011;9944;48.240;16.478;2024-03-08T08:17:07;31.95;;;14.63;;
19593;SDS011;9944;48.240;16.478;2024-03-08T08:21:12;26.95;;;14.00;;
19593;SDS011;9944;48.240;16.478;2024-03-08T08:25:16;28.27;;;13.93;;
19593;SDS011;9944;48.240;16.478;2024-03-08T08:29:22;28.05;;;14.00;;
19593;SDS011;9944;48.240;16.478;2024-03-08T08:33:25;29.00;;;14.20;;
19593;SDS011;9944;48.240;16.478;2024-03-08T08:37:31;26.23;;;14.27;;
19593;SDS011;9944;48.240;16.478;2024-03-08T08:41:35;28.52;;;13.93;;
19593;SDS011;9944;48.240;16.478;2024-03-08T08:45:39;26.17;;;13.15;;
19593;SDS011;9944;48.240;16.478;2024-03-08T08:49:42;30.60;;;13.82;;
19593;SDS011;9944;48.240;16.478;2024-03-08T08:53:48;30.35;;;13.77;;
19593;SDS011;9944;48.240;16.478;2024-03-08T08:57:51;27.20;;;13.20;;
19593;SDS011;9944;48.240;16.478;2024-03-08T09:01:54;26.90;;;13.30;;
19593;SDS011;9944;48.240;16.478;2024-03-08T09:05:58;28.55;;;14.25;;
19593;SDS011;9944;48.240;16.478;2024-03-08T09:10:03;29.58;;;13.88;;
19593;SDS011;9944;48.240;16.478;2024-03-08T09:14:10;26.75;;;14.40;;
19593;SDS011;9944;48.240;16.478;2024-03-08T09:18:13;33.53;;;15.27;;
19593;SDS011;9944;48.240;16.478;2024-03-08T09:22:16;30.65;;;16.00;;
19593;SDS011;9944;48.240;16.478;2024-03-08T09:26:22;30.55;;;14.48;;
19593;SDS011;9944;48.240;16.478;2024-03-08T09:30:30;29.45;;;14.93;;
19593;SDS011;9944;48.240;16.478;2024-03-08T09:34:33;30.83;;;14.68;;
19593;SDS011;9944;48.240;16.478;2024-03-08T09:38:39;27.50;;;13.35;;
19593;SDS011;9944;48.240;16.478;2024-03-08T09:42:46;28.38;;;13.45;;
19593;SDS011;9944;48.240;16.478;2024-03-08T09:46:50;28.02;;;13.15;;
19593;SDS011;9944;48.240;16.478;2024-03-08T09:50:55;26.95;;;13.82;;
19593;SDS011;9944;48.240;16.478;2024-03-08T09:54:59;26.80;;;13.30;;
19593;SDS011;9944;48.240;16.478;2024-03-08T09:59:04;37.28;;;14.82;;
19593;SDS011;9944;48.240;16.478;2024-03-08T10:03:42;30.75;;;14.50;;
19593;SDS011;9944;48.240;16.478;2024-03-08T10:07:46;33.65;;;14.75;;
19593;SDS011;9944;48.240;16.478;2024-03-08T10:11:49;34.53;;;14.25;;
19593;SDS011;9944;48.240;16.478;2024-03-08T10:15:54;29.88;;;14.15;;
19593;SDS011;9944;48.240;16.478;2024-03-08T10:19:57;26.65;;;13.65;;
19593;SDS011;9944;48.240;16.478;2024-03-08T10:24:02;29.80;;;13.27;;
19593;SDS011;9944;48.240;16.478;2024-03-08T10:28:06;28.30;;;12.77;;
19593;SDS011;9944;48.240;16.478;2024-03-08T10:32:11;26.63;;;12.60;;
19593;SDS011;9944;48.240;16.478;2024-03-08T10:36:14;25.83;;;12.82;;
19593;SDS011;9944;48.240;16.478;2024-03-08T10:40:21;24.05;;;12.82;;
19593;SDS011;9944;48.240;16.478;2024-03-08T10:44:32;26.60;;;12.63;;
19593;SDS011;9944;48.240;16.478;2024-03-08T10:48:45;22.63;;;10.98;;
19593;SDS011;9944;48.240;16.478;2024-03-08T10:52:52;25.73;;;11.90;;
19593;SDS011;9944;48.240;16.478;2024-03-08T10:56:57;22.20;;;11.18;;
19593;SDS011;9944;48.240;16.478;2024-03-08T11:01:02;25.75;;;11.07;;
19593;SDS011;9944;48.240;16.478;2024-03-08T11:05:11;22.45;;;10.48;;
19593;SDS011;9944;48.240;16.478;2024-03-08T11:09:35;21.02;;;10.68;;
19593;SDS011;9944;48.240;16.478;2024-03-08T11:13:41;23.85;;;11.27;;
19593;SDS011;9944;48.240;16.478;2024-03-08T11:17:45;20.90;;;10.68;;
19593;SDS011;9944;48.240;16.478;2024-03-08T11:21:58;20.80;;;9.48;;
19593;SDS011;9944;48.240;16.478;2024-03-08T11:26:02;21.67;;;9.18;;
19593;SDS011;9944;48.240;16.478;2024-03-08T11:30:09;16.42;;;8.85;;
19593;SDS011;9944;48.240;16.478;2024-03-08T11:34:19;17.25;;;8.40;;
19593;SDS011;9944;48.240;16.478;2024-03-08T11:38:24;17.75;;;9.52;;
19593;SDS011;9944;48.240;16.478;2024-03-08T11:42:27;17.80;;;9.32;;
19593;SDS011;9944;48.240;16.478;2024-03-08T11:46:31;19.35;;;8.93;;
19593;SDS011;9944;48.240;16.478;2024-03-08T11:50:35;17.17;;;8.15;;
19593;SDS011;9944;48.240;16.478;2024-03-08T11:54:41;10.90;;;5.72;;
19593;SDS011;9944;48.240;16.478;2024-03-08T11:58:52;12.02;;;6.13;;
19593;SDS011;9944;48.240;16.478;2024-03-08T12:03:02;12.50;;;6.57;;
19593;SDS011;9944;48.240;16.478;2024-03-08T12:07:06;11.77;;;6.22;;
19593;SDS011;9944;48.240;16.478;2024-03-08T12:11:16;10.90;;;5.95;;
19593;SDS011;9944;48.240;16.478;2024-03-08T12:15:21;13.85;;;6.45;;
19593;SDS011;9944;48.240;16.478;2024-03-08T12:19:25;13.68;;;5.75;;
19593;SDS011;9944;48.240;16.478;2024-03-08T12:23:29;12.60;;;6.03;;
19593;SDS011;9944;48.240;16.478;2024-03-08T12:27:34;10.77;;;5.25;;
19593;SDS011;9944;48.240;16.478;2024-03-08T12:31:38;10.48;;;5.65;;
19593;SDS011;9944;48.240;16.478;2024-03-08T12:35:56;10.43;;;5.75;;
19593;SDS011;9944;48.240;16.478;2024-03-08T12:40:02;10.77;;;5.50;;
19593;SDS011;9944;48.240;16.478;2024-03-08T12:44:23;9.75;;;5.07;;
19593;SDS011;9944;48.240;16.478;2024-03-08T12:48:27;11.20;;;5.45;;
19593;SDS011;9944;48.240;16.478;2024-03-08T12:52:30;8.45;;;5.03;;
19593;SDS011;9944;48.240;16.478;2024-03-08T12:56:36;8.32;;;4.07;;
19593;SDS011;9944;48.240;16.478;2024-03-08T13:00:41;9.75;;;4.80;;
19593;SDS011;9944;48.240;16.478;2024-03-08T13:04:45;7.10;;;4.32;;
19593;SDS011;9944;48.240;16.478;2024-03-08T13:08:53;8.77;;;4.30;;
19593;SDS011;9944;48.240;16.478;2024-03-08T13:12:57;7.07;;;4.07;;
19593;SDS011;9944;48.240;16.478;2024-03-08T13:17:02;7.97;;;4.63;;
19593;SDS011;9944;48.240;16.478;2024-03-08T13:21:05;8.05;;;4.30;;
19593;SDS011;9944;48.240;16.478;2024-03-08T13:25:10;6.28;;;4.13;;
19593;SDS011;9944;48.240;16.478;2024-03-08T13:29:14;8.55;;;4.63;;
19593;SDS011;9944;48.240;16.478;2024-03-08T13:33:21;7.93;;;4.20;;
19593;SDS011;9944;48.240;16.478;2024-03-08T13:37:25;8.90;;;4.88;;
19593;SDS011;9944;48.240;16.478;2024-03-08T13:41:28;7.15;;;4.72;;
19593;SDS011;9944;48.240;16.478;2024-03-08T13:45:34;9.15;;;4.55;;
19593;SDS011;9944;48.240;16.478;2024-03-08T13:49:43;7.90;;;4.68;;
19593;SDS011;9944;48.240;16.478;2024-03-08T13:53:49;7.03;;;4.07;;
19593;SDS011;9944;48.240;16.478;2024-03-08T13:57:57;9.90;;;5.15;;
19593;SDS011;9944;48.240;16.478;2024-03-08T14:06:46;8.45;;;4.93;;
19593;SDS011;9944;48.240;16.478;2024-03-08T14:10:50;9.32;;;5.30;;
19593;SDS011;9944;48.240;16.478;2024-03-08T14:14:55;10.18;;;5.30;;
19593;SDS011;9944;48.240;16.478;2024-03-08T14:19:01;10.80;;;5.55;;
19593;SDS011;9944;48.240;16.478;2024-03-08T14:23:08;12.18;;;6.00;;
19593;SDS011;9944;48.240;16.478;2024-03-08T14:27:14;8.73;;;5.90;;
19593;SDS011;9944;48.240;16.478;2024-03-08T14:31:20;9.10;;;5.45;;
19593;SDS011;9944;48.240;16.478;2024-03-08T14:35:27;9.23;;;5.55;;
19593;SDS011;9944;48.240;16.478;2024-03-08T14:39:32;10.60;;;6.15;;
19593;SDS011;9944;48.240;16.478;2024-03-08T14:49:50;9.60;;;5.82;;
19593;SDS011;9944;48.240;16.478;2024-03-08T14:53:54;11.05;;;6.07;;
19593;SDS011;9944;48.240;16.478;2024-03-08T14:57:58;12.10;;;5.85;;
19593;SDS011;9944;48.240;16.478;2024-03-08T15:02:01;12.50;;;6.07;;
19593;SDS011;9944;48.240;16.478;2024-03-08T15:06:09;14.57;;;5.57;;
19593;SDS011;9944;48.240;16.478;2024-03-08T15:10:13;10.43;;;6.18;;
19593;SDS011;9944;48.240;16.478;2024-03-08T15:14:19;12.20;;;4.90;;
19593;SDS011;9944;48.240;16.478;2024-03-08T15:18:23;12.25;;;5.65;;
19593;SDS011;9944;48.240;16.478;2024-03-08T15:22:35;10.75;;;6.13;;
19593;SDS011;9944;48.240;16.478;2024-03-08T15:26:41;11.68;;;6.00;;
19593;SDS011;9944;48.240;16.478;2024-03-08T15:30:46;11.48;;;6.32;;
19593;SDS011;9944;48.240;16.478;2024-03-08T15:34:55;9.00;;;5.43;;
19593;SDS011;9944;48.240;16.478;2024-03-08T15:38:59;12.05;;;5.53;;
19593;SDS011;9944;48.240;16.478;2024-03-08T15:43:03;11.40;;;5.57;;
19593;SDS011;9944;48.240;16.478;2024-03-08T15:47:08;8.80;;;5.05;;
19593;SDS011;9944;48.240;16.478;2024-03-08T15:51:13;11.20;;;5.50;;
19593;SDS011;9944;48.240;16.478;2024-03-08T15:55:17;9.88;;;5.40;;
19593;SDS011;9944;48.240;16.478;2024-03-08T15:59:23;11.75;;;5.70;;
19593;SDS011;9944;48.240;16.478;2024-03-08T16:03:30;9.15;;;5.55;;
19593;SDS011;9944;48.240;16.478;2024-03-08T16:07:34;10.63;;;5.13;;
19593;SDS011;9944;48.240;16.478;2024-03-08T16:11:37;8.57;;;5.30;;
19593;SDS011;9944;48.240;16.478;2024-03-08T16:15:41;8.57;;;5.35;;
19593;SDS011;9944;48.240;16.478;2024-03-08T16:19:51;8.88;;;4.88;;
19593;SDS011;9944;48.240;16.478;2024-03-08T16:23:58;9.90;;;5.65;;
19593;SDS011;9944;48.240;16.478;2024-03-08T16:28:02;8.35;;;5.03;;
19593;SDS011;9944;48.240;16.478;2024-03-08T16:32:07;9.02;;;5.40;;
19593;SDS011;9944;48.240;16.478;2024-03-08T16:36:11;8.10;;;4.30;;
19593;SDS011;9944;48.240;16.478;2024-03-08T16:40:16;11.63;;;5.97;;
19593;SDS011;9944;48.240;16.478;2024-03-08T16:44:19;8.70;;;4.97;;
19593;SDS011;9944;48.240;16.478;2024-03-08T16:48:23;9.48;;;5.47;;
19593;SDS011;9944;48.240;16.478;2024-03-08T16:52:28;9.93;;;5.47;;
19593;SDS011;9944;48.240;16.478;2024-03-08T16:56:31;8.32;;;4.78;;
19593;SDS011;9944;48.240;16.478;2024-03-08T17:00:51;8.80;;;5.53;;
19593;SDS011;9944;48.240;16.478;2024-03-08T17:04:55;8.27;;;5.25;;
19593;SDS011;9944;48.240;16.478;2024-03-08T17:08:59;9.52;;;5.07;;
19593;SDS011;9944;48.240;16.478;2024-03-08T17:13:03;9.63;;;5.45;;
19593;SDS011;9944;48.240;16.478;2024-03-08T17:17:07;7.65;;;4.90;;
19593;SDS011;9944;48.240;16.478;2024-03-08T17:21:11;7.88;;;4.93;;
19593;SDS011;9944;48.240;16.478;2024-03-08T17:25:16;9.55;;;5.20;;
19593;SDS011;9944;48.240;16.478;2024-03-08T17:29:23;7.50;;;5.03;;
19593;SDS011;9944;48.240;16.478;2024-03-08T17:33:26;10.00;;;5.55;;
19593;SDS011;9944;48.240;16.478;2024-03-08T17:42:13;12.13;;;5.68;;
19593;SDS011;9944;48.240;16.478;2024-03-08T17:46:17;10.68;;;5.55;;
19593;SDS011;9944;48.240;16.478;2024-03-08T17:50:21;11.82;;;5.78;;
19593;SDS011;9944;48.240;16.478;2024-03-08T17:54:26;11.05;;;6.05;;
19593;SDS011;9944;48.240;16.478;2024-03-08T17:58:31;11.32;;;5.32;;
19593;SDS011;9944;48.240;16.478;2024-03-08T18:02:35;8.60;;;5.38;;
19593;SDS011;9944;48.240;16.478;2024-03-08T18:06:39;12.00;;;6.00;;
19593;SDS011;9944;48.240;16.478;2024-03-08T18:10:43;9.55;;;5.80;;
19593;SDS011;9944;48.240;16.478;2024-03-08T18:14:51;9.55;;;5.63;;
19593;SDS011;9944;48.240;16.478;2024-03-08T18:18:55;9.32;;;5.38;;
19593;SDS011;9944;48.240;16.478;2024-03-08T18:22:59;9.68;;;5.40;;
19593;SDS011;9944;48.240;16.478;2024-03-08T18:27:04;9.98;;;5.85;;
19593;SDS011;9944;48.240;16.478;2024-03-08T18:31:09;7.70;;;5.47;;
19593;SDS011;9944;48.240;16.478;2024-03-08T18:35:13;8.98;;;5.43;;
19593;SDS011;9944;48.240;16.478;2024-03-08T18:39:17;9.10;;;5.15;;
19593;SDS011;9944;48.240;16.478;2024-03-08T18:43:26;9.77;;;5.25;;
19593;SDS011;9944;48.240;16.478;2024-03-08T18:47:31;10.50;;;5.80;;
19593;SDS011;9944;48.240;16.478;2024-03-08T18:51:36;10.02;;;5.15;;
19593;SDS011;9944;48.240;16.478;2024-03-08T18:55:39;9.63;;;5.47;;
19593;SDS011;9944;48.240;16.478;2024-03-08T18:59:45;9.75;;;5.80;;
19593;SDS011;9944;48.240;16.478;2024-03-08T19:03:51;11.85;;;5.68;;
19593;SDS011;9944;48.240;16.478;2024-03-08T19:07:55;11.75;;;5.18;;
19593;SDS011;9944;48.240;16.478;2024-03-08T19:11:58;9.88;;;5.38;;
19593;SDS011;9944;48.240;16.478;2024-03-08T19:16:06;11.65;;;6.35;;
19593;SDS011;9944;48.240;16.478;2024-03-08T19:20:17;13.07;;;5.88;;
19593;SDS011;9944;48.240;16.478;2024-03-08T19:24:21;11.88;;;5.80;;
19593;SDS011;9944;48.240;16.478;2024-03-08T19:28:24;10.73;;;5.97;;
19593;SDS011;9944;48.240;16.478;2024-03-08T19:32:28;10.65;;;6.13;;
19593;SDS011;9944;48.240;16.478;2024-03-08T19:36:32;11.13;;;5.93;;
19593;SDS011;9944;48.240;16.478;2024-03-08T19:40:36;10.93;;;6.35;;
19593;SDS011;9944;48.240;16.478;2024-03-08T19:44:43;12.60;;;6.10;;
19593;SDS011;9944;48.240;16.478;2024-03-08T19:48:50;11.07;;;6.63;;
19593;SDS011;9944;48.240;16.478;2024-03-08T19:52:56;14.15;;;6.60;;
19593;SDS011;9944;48.240;16.478;2024-03-08T19:57:06;12.38;;;6.57;;
19593;SDS011;9944;48.240;16.478;2024-03-08T20:01:09;15.73;;;8.00;;
19593;SDS011;9944;48.240;16.478;2024-03-08T20:05:17;13.23;;;6.93;;
19593;SDS011;9944;48.240;16.478;2024-03-08T20:09:24;14.85;;;7.68;;
19593;SDS011;9944;48.240;16.478;2024-03-08T20:13:28;16.05;;;8.38;;
19593;SDS011;9944;48.240;16.478;2024-03-08T20:17:31;14.20;;;7.10;;
19593;SDS011;9944;48.240;16.478;2024-03-08T20:21:34;14.02;;;7.45;;
19593;SDS011;9944;48.240;16.478;2024-03-08T20:25:39;14.32;;;7.38;;
19593;SDS011;9944;48.240;16.478;2024-03-08T20:29:47;15.32;;;7.82;;
19593;SDS011;9944;48.240;16.478;2024-03-08T20:38:19;13.82;;;7.32;;
19593;SDS011;9944;48.240;16.478;2024-03-08T20:42:25;15.70;;;8.25;;
19593;SDS011;9944;48.240;16.478;2024-03-08T20:46:29;15.80;;;8.10;;
19593;SDS011;9944;48.240;16.478;2024-03-08T20:50:33;15.85;;;7.95;;
19593;SDS011;9944;48.240;16.478;2024-03-08T20:54:38;14.55;;;7.72;;
19593;SDS011;9944;48.240;16.478;2024-03-08T20:58:43;18.10;;;8.55;;
19593;SDS011;9944;48.240;16.478;2024-03-08T21:02:48;15.70;;;8.13;;
19593;SDS011;9944;48.240;16.478;2024-03-08T21:06:52;16.92;;;8.57;;
19593;SDS011;9944;48.240;16.478;2024-03-08T21:10:56;14.07;;;7.82;;
19593;SDS011;9944;48.240;16.478;2024-03-08T21:15:01;18.67;;;8.82;;
19593;SDS011;9944;48.240;16.478;2024-03-08T21:19:09;20.35;;;8.82;;
19593;SDS011;9944;48.240;16.478;2024-03-08T21:23:12;17.58;;;9.27;;
19593;SDS011;9944;48.240;16.478;2024-03-08T21:27:16;13.88;;;7.47;;
19593;SDS011;9944;48.240;16.478;2024-03-08T21:31:21;15.55;;;8.32;;
19593;SDS011;9944;48.240;16.478;2024-03-08T21:35:25;17.80;;;9.18;;
19593;SDS011;9944;48.240;16.478;2024-03-08T21:39:31;16.15;;;8.70;;
19593;SDS011;9944;48.240;16.478;2024-03-08T21:43:35;22.42;;;9.77;;
19593;SDS011;9944;48.240;16.478;2024-03-08T21:47:40;18.40;;;9.25;;
19593;SDS011;9944;48.240;16.478;2024-03-08T21:51:43;14.65;;;8.23;;
19593;SDS011;9944;48.240;16.478;2024-03-08T21:55:48;17.98;;;8.50;;
19593;SDS011;9944;48.240;16.478;2024-03-08T21:59:52;18.65;;;9.02;;
19593;SDS011;9944;48.240;16.478;2024-03-08T22:03:58;17.67;;;8.63;;
19593;SDS011;9944;48.240;16.478;2024-03-08T22:08:02;18.15;;;8.48;;
19593;SDS011;9944;48.240;16.478;2024-03-08T22:12:06;15.63;;;8.45;;
19593;SDS011;9944;48.240;16.478;2024-03-08T22:16:10;16.45;;;8.65;;
19593;SDS011;9944;48.240;16.478;2024-03-08T22:20:16;16.38;;;9.10;;
19593;SDS011;9944;48.240;16.478;2024-03-08T22:24:23;19.50;;;8.60;;
19593;SDS011;9944;48.240;16.478;2024-03-08T22:28:26;18.33;;;9.38;;
19593;SDS011;9944;48.240;16.478;2024-03-08T22:32:30;17.35;;;8.48;;
19593;SDS011;9944;48.240;16.478;2024-03-08T22:36:35;15.77;;;8.13;;
19593;SDS011;9944;48.240;16.478;2024-03-08T22:40:38;16.65;;;8.07;;
19593;SDS011;9944;48.240;16.478;2024-03-08T22:44:41;14.85;;;8.40;;
19593;SDS011;9944;48.240;16.478;2024-03-08T22:48:44;16.45;;;9.30;;
19593;SDS011;9944;48.240;16.478;2024-03-08T22:52:49;15.90;;;8.38;;
19593;SDS011;9944;48.240;16.478;2024-03-08T22:56:53;15.70;;;8.55;;
19593;SDS011;9944;48.240;16.478;2024-03-08T23:00:58;15.55;;;8.23;;
19593;SDS011;9944;48.240;16.478;2024-03-08T23:05:05;15.45;;;8.38;;
19593;SDS011;9944;48.240;16.478;2024-03-08T23:09:12;13.82;;;7.85;;
19593;SDS011;9944;48.240;16.478;2024-03-08T23:13:16;15.15;;;7.20;;
19593;SDS011;9944;48.240;16.478;2024-03-08T23:17:20;14.55;;;8.20;;
19593;SDS011;9944;48.240;16.478;2024-03-08T23:21:23;15.68;;;8.20;;
19593;SDS011;9944;48.240;16.478;2024-03-08T23:30:21;14.52;;;8.00;;
19593;SDS011;9944;48.240;16.478;2024-03-08T23:34:29;15.60;;;8.20;;
19593;SDS011;9944;48.240;16.478;2024-03-08T23:38:33;14.98;;;7.47;;
19593;SDS011;9944;48.240;16.478;2024-03-08T23:42:37;14.35;;;7.80;;
19593;SDS011;9944;48.240;16.478;2024-03-08T23:46:42;13.00;;;7.60;;
19593;SDS011;9944;48.240;16.478;2024-03-08T23:50:47;15.15;;;8.65;;
19593;SDS011;9944;48.240;16.478;2024-03-08T23:54:50;14.23;;;8.57;;
19593;SDS011;9944;48.240;16.478;2024-03-08T23:58:53;13.65;;;7.65;;
